Auburn, Iowa
Current Conditions -  °F | °C
As of 8:55 PM on Sunday 21 Dec 2014 (Local Time) from KCIN Reporting Station
Haze Haze  
Wind Chill: 31°   Ceiling: 500
Heat Index: 39°   Visibility: 2mi
Dew Point: 39°   Wind: 15mph
Humidity: 100%   Direction: 170°S
Pressure: 29.7"   Gusts: NA
Location:  42.25°N, 94.88°W
Report Text: KCIN 220255Z AUTO 17013KT 2SM BR OVC005 04/04 A2970 RMK AO2
Loading
Personal Weather Stations






























Interactive Weather Map New forecast layout! Learn more

10-Day Weather Forecast

Advertisements
Track Severe Weather on mobile